Time;durP1;ratioP1;P1;durP2;ratioP2;P2;SDS_P1;SDS_P2;PMS_P1;PMS_P2;Temp;Humidity;BMP_temperature;BMP_pressure;BME280_temperature;BME280_humidity;BME280_pressure;Samples;Min_cycle;Max_cycle;Signal;HPM_P1;HPM_P2
2021/06/23 09:27:22;;;;;;;37.70;21.35;;;16.80;99.90;;;;;;12110860;27;20433;-63
2021/06/23 09:33:16;;;;;;;36.55;21.02;;;17.00;99.90;;;;;;12087098;28;20047;-63
2021/06/23 09:39:06;;;;;;;28.83;20.40;;;17.70;99.90;;;;;;12091125;28;20105;-61
2021/06/23 09:45:06;;;;;;;31.88;19.60;;;17.80;99.90;;;;;;12109025;27;20071;-62
2021/06/23 09:51:10;;;;;;;28.98;19.27;;;18.00;99.90;;;;;;12110693;27;20055;-61
2021/06/23 09:57:13;;;;;;;27.80;17.85;;;18.00;99.90;;;;;;12110907;27;20055;-61
2021/06/23 10:03:05;;;;;;;31.93;18.40;;;18.50;99.90;;;;;;12110405;28;20044;-61
2021/06/23 10:08:53;;;;;;;28.88;18.35;;;18.50;99.90;;;;;;12063450;28;20297;-61
2021/06/23 10:14:42;;;;;;;26.52;16.70;;;18.50;99.90;;;;;;12085717;28;20114;-61
2021/06/23 10:20:30;;;;;;;27.63;16.73;;;18.80;99.90;;;;;;12105294;27;20544;-62
2021/06/23 10:26:18;;;;;;;24.42;15.95;;;19.00;99.90;;;;;;12110478;27;20500;-61
2021/06/23 10:32:11;;;;;;;23.23;15.93;;;19.10;99.90;;;;;;12070535;27;20055;-61
2021/06/23 10:38:01;;;;;;;22.63;17.90;;;19.10;99.90;;;;;;12034764;28;20432;-60
2021/06/23 10:44:19;;;;;;;23.02;17.23;;;19.00;99.90;;;;;;12042617;28;20104;-61
2021/06/23 10:50:09;;;;;;;23.77;16.65;;;19.00;99.90;;;;;;12078228;28;20056;-61
2021/06/23 10:55:58;;;;;;;27.38;16.52;;;18.80;99.90;;;;;;12072882;28;20056;-61
2021/06/23 11:02:07;;;;;;;26.02;16.92;;;18.90;99.90;;;;;;12074657;28;20048;-62
2021/06/23 11:07:56;;;;;;;29.80;18.42;;;18.90;99.90;;;;;;12035307;28;20048;-62
2021/06/23 11:13:44;;;;;;;24.90;18.17;;;19.10;99.90;;;;;;12066779;28;20059;-62
2021/06/23 11:19:38;;;;;;;31.00;18.52;;;18.90;99.90;;;;;;12074167;28;20041;-62
2021/06/23 12:29:22;;;;;;;20.63;15.55;;;18.90;99.90;;;;;;14817803;22;1317148;-59
2021/06/23 12:35:10;;;;;;;21.73;14.82;;;18.70;99.90;;;;;;14699633;23;20025;-60
2021/06/23 12:40:57;;;;;;;22.02;15.93;;;18.90;99.90;;;;;;14701089;23;20035;-60
2021/06/23 12:46:46;;;;;;;18.60;14.05;;;18.60;99.90;;;;;;14699900;23;20043;-60
2021/06/23 12:52:32;;;;;;;18.75;14.70;;;18.80;99.90;;;;;;14714821;23;20194;-59
2021/06/23 12:58:19;;;;;;;24.70;15.00;;;19.00;99.90;;;;;;14756949;23;20035;-60
2021/06/23 13:04:08;;;;;;;22.58;13.57;;;19.00;99.90;;;;;;14745464;23;20370;-60
2021/06/23 13:09:54;;;;;;;25.50;16.25;;;19.20;99.90;;;;;;14733443;23;20021;-60
2021/06/23 13:15:41;;;;;;;22.67;15.80;;;19.30;99.90;;;;;;14730238;23;20024;-60
2021/06/23 13:21:30;;;;;;;22.38;16.55;;;19.20;99.90;;;;;;14730663;23;20028;-60
2021/06/23 13:27:16;;;;;;;24.75;17.05;;;19.40;99.90;;;;;;14719133;23;20371;-60
2021/06/23 13:33:04;;;;;;;20.40;16.17;;;19.60;99.90;;;;;;14717780;23;20066;-60
2021/06/23 13:38:52;;;;;;;22.05;14.90;;;19.20;99.90;;;;;;14685010;23;20029;-60
2021/06/23 13:44:39;;;;;;;23.42;16.00;;;19.60;99.90;;;;;;14666045;23;20032;-60
2021/06/23 13:50:26;;;;;;;29.17;18.30;;;20.00;99.90;;;;;;14666982;23;20033;-60
2021/06/23 13:56:14;;;;;;;22.55;17.27;;;19.70;99.90;;;;;;14724825;23;20032;-59
2021/06/23 14:02:02;;;;;;;28.08;18.33;;;19.60;99.90;;;;;;14697592;23;20029;-60
2021/06/23 14:07:49;;;;;;;33.40;18.25;;;19.50;99.90;;;;;;14737949;23;20084;-60
2021/06/23 14:13:37;;;;;;;24.00;17.42;;;19.50;99.90;;;;;;14717931;23;20119;-61
2021/06/23 14:19:24;;;;;;;28.10;17.70;;;19.20;99.90;;;;;;14704298;23;20029;-60
2021/06/23 14:25:13;;;;;;;30.92;18.83;;;19.30;99.90;;;;;;14729140;23;20027;-60
2021/06/23 14:31:01;;;;;;;25.38;16.88;;;19.50;99.90;;;;;;14706570;23;20029;-60
2021/06/23 14:36:48;;;;;;;31.70;17.55;;;19.60;99.90;;;;;;14718424;23;20657;-60
2021/06/23 14:42:35;;;;;;;30.38;19.40;;;19.70;99.90;;;;;;14682989;23;20112;-60
2021/06/23 14:48:24;;;;;;;24.83;16.98;;;19.70;99.90;;;;;;14754309;23;20478;-60
2021/06/23 14:54:12;;;;;;;35.47;18.75;;;19.50;99.90;;;;;;14720214;23;20060;-59
2021/06/23 14:59:59;;;;;;;33.00;18.95;;;19.70;99.90;;;;;;14679650;23;20055;-60
2021/06/23 15:05:48;;;;;;;26.50;18.35;;;20.00;99.90;;;;;;14681687;23;20087;-60
2021/06/23 15:11:34;;;;;;;22.73;16.50;;;20.10;99.90;;;;;;14679988;23;20063;-59
2021/06/23 15:17:21;;;;;;;30.25;18.98;;;20.40;99.90;;;;;;14680520;23;20029;-61
2021/06/23 15:23:10;;;;;;;27.55;16.92;;;20.50;99.90;;;;;;14717062;23;20029;-60
2021/06/23 15:28:57;;;;;;;35.42;17.90;;;20.20;99.90;;;;;;14681655;23;20100;-60
2021/06/23 15:34:45;;;;;;;29.20;16.80;;;19.90;99.90;;;;;;14681653;23;20051;-60
2021/06/23 15:40:34;;;;;;;28.20;15.88;;;19.70;99.90;;;;;;14680263;23;20031;-60
2021/06/23 15:46:21;;;;;;;33.53;18.13;;;19.90;99.90;;;;;;14678405;23;20121;-60
2021/06/23 15:52:08;;;;;;;28.40;16.90;;;19.80;99.90;;;;;;14642679;23;20025;-61
2021/06/23 15:57:57;;;;;;;25.70;17.52;;;19.90;99.90;;;;;;14678601;23;20107;-62
2021/06/23 16:03:44;;;;;;;28.65;16.90;;;19.80;99.90;;;;;;14680210;23;20023;-61
2021/06/23 16:09:35;;;;;;;22.63;16.13;;;19.80;99.90;;;;;;14680774;23;20027;-59
2021/06/23 16:15:23;;;;;;;26.58;16.95;;;20.00;99.90;;;;;;14681654;23;20052;-59
2021/06/23 16:21:12;;;;;;;29.23;16.90;;;19.50;99.90;;;;;;14644770;23;20029;-59
2021/06/23 16:26:59;;;;;;;26.27;16.08;;;19.80;99.90;;;;;;14705700;23;20336;-60
2021/06/23 16:32:48;;;;;;;19.80;14.55;;;19.80;99.90;;;;;;14683815;23;20025;-58
2021/06/23 16:38:35;;;;;;;24.42;14.73;;;19.90;99.90;;;;;;14717682;23;20476;-60
2021/06/23 16:44:21;;;;;;;22.92;15.70;;;20.10;99.90;;;;;;14679083;23;20112;-60
2021/06/23 16:50:11;;;;;;;25.25;15.07;;;19.70;99.90;;;;;;14679748;23;20027;-59
2021/06/23 16:55:58;;;;;;;23.85;14.93;;;19.60;99.90;;;;;;14682902;23;20029;-60
2021/06/23 17:01:45;;;;;;;25.25;16.80;;;19.70;99.90;;;;;;14684326;23;20032;-60
2021/06/23 17:07:34;;;;;;;28.83;16.23;;;19.60;99.90;;;;;;14698887;23;20118;-59
2021/06/23 17:13:21;;;;;;;22.80;15.07;;;20.80;99.90;;;;;;14701430;23;20124;-59
2021/06/23 17:19:08;;;;;;;24.50;15.98;;;21.00;99.90;;;;;;14686351;23;20028;-60
2021/06/23 17:24:56;;;;;;;37.35;20.25;;;21.30;99.90;;;;;;14706567;23;20075;-60
2021/06/23 17:30:45;;;;;;;32.33;18.50;;;20.90;99.90;;;;;;14720076;23;20021;-60
2021/06/23 17:36:33;;;;;;;27.02;17.55;;;20.20;99.90;;;;;;14681862;23;20024;-70
2021/06/23 17:42:21;;;;;;;30.80;20.20;;;19.90;99.90;;;;;;14682253;23;20029;-59
2021/06/23 17:48:09;;;;;;;37.58;19.10;;;19.80;99.90;;;;;;14685777;23;20099;-61
2021/06/23 18:00:00;;;;;;;21.73;14.93;;;19.50;99.90;;;;;;14721367;23;20039;-61
2021/06/23 18:05:48;;;;;;;21.60;14.00;;;21.90;99.90;;;;;;14715625;23;20481;-61
2021/06/23 18:11:35;;;;;;;20.85;14.23;;;24.70;99.90;;;;;;14686161;23;20021;-61
2021/06/23 18:17:23;;;;;;;20.63;13.88;;;26.30;91.80;;;;;;14681720;23;20025;-60
2021/06/23 18:23:11;;;;;;;20.80;14.98;;;26.20;87.60;;;;;;14703841;23;20358;-61
2021/06/23 18:28:58;;;;;;;20.80;16.08;;;25.60;85.00;;;;;;14715220;23;20020;-61
2021/06/23 18:34:47;;;;;;;25.60;16.88;;;23.70;90.50;;;;;;14714224;23;20028;-61
2021/06/23 18:40:35;;;;;;;22.40;16.10;;;22.00;94.40;;;;;;14699859;23;20059;-62
2021/06/23 18:46:21;;;;;;;34.33;21.05;;;21.10;97.10;;;;;;14710810;23;20020;-62
2021/06/23 18:52:10;;;;;;;25.95;16.98;;;20.70;99.90;;;;;;14682763;23;20029;-60
2021/06/23 18:57:58;;;;;;;25.58;17.20;;;20.50;99.90;;;;;;14684710;23;20036;-60
2021/06/23 19:03:45;;;;;;;19.23;15.82;;;20.10;99.90;;;;;;14681312;23;20021;-60
2021/06/23 19:09:34;;;;;;;23.73;16.98;;;20.00;99.90;;;;;;14676470;23;20100;-55
2021/06/23 19:15:22;;;;;;;23.48;16.58;;;20.00;99.90;;;;;;14737704;23;20029;-54
2021/06/23 19:21:11;;;;;;;23.70;16.23;;;20.00;99.90;;;;;;14681351;23;20032;-56
2021/06/23 19:26:59;;;;;;;25.33;16.85;;;20.00;99.90;;;;;;14696916;22;20051;-56
2021/06/23 19:32:47;;;;;;;24.13;15.30;;;19.90;99.90;;;;;;14680788;23;20035;-53
2021/06/23 19:38:34;;;;;;;18.58;12.30;;;19.90;99.90;;;;;;14679922;23;20035;-55
2021/06/23 19:44:22;;;;;;;19.75;12.15;;;19.60;99.90;;;;;;14677432;23;20032;-57
